createdAt,value
2022-09-17T00:00:52.243Z,0.50
2022-09-17T00:03:18.725Z,0.50
2022-09-17T00:05:45.162Z,0.65
2022-09-17T00:08:14.612Z,0.60
2022-09-17T00:10:42.192Z,0.60
2022-09-17T00:13:08.891Z,0.52
2022-09-17T00:15:44.934Z,0.60
2022-09-17T00:18:11.869Z,0.50
2022-09-17T00:20:42.666Z,0.60
2022-09-17T00:23:09.607Z,0.50
2022-09-17T00:25:44.619Z,0.50
2022-09-17T00:28:14.572Z,0.50
2022-09-17T00:30:44.649Z,0.40
2022-09-17T00:33:12.284Z,0.50
2022-09-17T00:35:38.762Z,0.50
2022-09-17T00:38:05.228Z,0.50
2022-09-17T00:40:31.718Z,0.52
2022-09-17T00:42:58.227Z,0.35
2022-09-17T00:45:24.761Z,0.52
2022-09-17T00:47:59.403Z,0.35
2022-09-17T00:50:35.099Z,0.50
2022-09-17T00:53:05.418Z,0.32
2022-09-17T00:55:36.897Z,0.45
2022-09-17T00:58:04.296Z,0.40
2022-09-17T01:00:31.105Z,0.40
2022-09-17T01:02:58.228Z,0.55
2022-09-17T01:05:31.275Z,0.40
2022-09-17T01:08:08.675Z,0.40
2022-09-17T01:11:00.544Z,0.40
2022-09-17T01:13:48.294Z,0.25
2022-09-17T01:16:30.521Z,0.55
2022-09-17T01:19:31.092Z,0.50
2022-09-17T01:22:03.004Z,0.60
2022-09-17T01:24:48.872Z,0.45
2022-09-17T01:27:18.321Z,0.57
2022-09-17T01:30:06.636Z,0.50
2022-09-17T01:32:47.575Z,0.40
2022-09-17T01:35:21.249Z,0.60
2022-09-17T01:38:10.737Z,0.40
2022-09-17T01:41:06.623Z,0.50
2022-09-17T01:43:35.927Z,0.45
2022-09-17T01:46:20.300Z,0.30
2022-09-17T01:51:18.926Z,0.50
2022-09-17T01:54:05.294Z,0.47
2022-09-17T01:56:36.108Z,0.50
2022-09-17T01:59:36.954Z,0.50
2022-09-17T02:02:07.657Z,0.30
2022-09-17T02:04:37.030Z,0.50
2022-09-17T02:07:06.177Z,0.30
2022-09-17T02:09:41.820Z,0.40
2022-09-17T02:12:10.802Z,0.57
2022-09-17T02:14:43.731Z,0.50
2022-09-17T02:17:32.498Z,0.50
2022-09-17T02:19:58.934Z,0.50
2022-09-17T02:22:35.240Z,0.45
2022-09-17T02:25:22.926Z,0.75
2022-09-17T02:27:58.529Z,0.70
2022-09-17T02:30:25.020Z,0.65
2022-09-17T02:32:51.544Z,0.50
2022-09-17T02:35:18.066Z,0.43
2022-09-17T02:37:44.609Z,0.43
2022-09-17T02:40:12.240Z,0.50
2022-09-17T02:42:54.242Z,0.85
2022-09-17T02:45:25.464Z,0.50
2022-09-17T02:48:09.764Z,0.60
2022-09-17T02:51:05.173Z,0.40
2022-09-17T02:53:48.124Z,0.50
2022-09-17T02:56:54.947Z,0.50
2022-09-17T02:59:25.577Z,0.60
2022-09-17T03:02:17.664Z,0.45
2022-09-17T03:04:46.807Z,0.50
2022-09-17T03:07:13.268Z,0.50
2022-09-17T03:09:40.203Z,0.40
2022-09-17T03:12:06.720Z,0.70
2022-09-17T03:14:33.162Z,0.40
2022-09-17T03:16:59.611Z,0.57
2022-09-17T03:19:26.399Z,0.57
2022-09-17T03:21:52.836Z,0.50
2022-09-17T03:24:19.286Z,0.65
2022-09-17T03:26:47.439Z,0.70
2022-09-17T03:29:13.889Z,0.60
2022-09-17T03:31:40.697Z,0.70
2022-09-17T03:34:07.276Z,0.45
2022-09-17T03:36:33.871Z,0.63
2022-09-17T03:39:00.870Z,0.65
2022-09-17T03:41:27.332Z,0.80
2022-09-17T03:43:53.902Z,0.82
2022-09-17T03:46:20.411Z,0.70
2022-09-17T03:48:46.920Z,0.98
2022-09-17T03:51:13.423Z,0.50
2022-09-17T03:53:39.902Z,0.70
2022-09-17T03:56:06.730Z,0.55
2022-09-17T03:58:33.314Z,0.70
2022-09-17T04:00:59.778Z,0.60
2022-09-17T04:03:29.082Z,0.40
2022-09-17T04:05:55.656Z,0.55
2022-09-17T04:08:22.186Z,0.77
2022-09-17T04:10:48.705Z,0.60
2022-09-17T04:13:15.924Z,0.73
2022-09-17T04:15:42.484Z,0.68
2022-09-17T04:18:08.977Z,0.70
2022-09-17T04:20:35.418Z,0.77
2022-09-17T04:23:01.916Z,0.73
2022-09-17T04:25:28.368Z,0.43
2022-09-17T04:27:54.838Z,0.82
2022-09-17T04:30:21.309Z,0.73
2022-09-17T04:32:47.810Z,0.60
2022-09-17T04:35:14.310Z,0.70
2022-09-17T04:37:40.775Z,0.60
2022-09-17T04:40:08.337Z,0.93
2022-09-17T04:42:34.939Z,0.60
2022-09-17T04:45:01.387Z,0.45
2022-09-17T04:47:27.848Z,0.70
2022-09-17T04:49:54.300Z,0.73
2022-09-17T04:52:20.761Z,0.70
2022-09-17T04:54:47.217Z,0.80
2022-09-17T04:57:13.663Z,0.90
2022-09-17T04:59:40.109Z,0.85
2022-09-17T05:02:06.617Z,0.80
2022-09-17T05:04:33.099Z,0.70
2022-09-17T05:07:00.243Z,0.65
2022-09-17T05:09:27.007Z,1.02
2022-09-17T05:11:53.449Z,1.05
2022-09-17T05:14:19.903Z,0.52
2022-09-17T05:16:46.827Z,0.75
2022-09-17T05:19:13.602Z,0.73
2022-09-17T05:21:40.062Z,0.65
2022-09-17T05:24:06.561Z,0.80
2022-09-17T05:26:33.028Z,0.85
2022-09-17T05:28:59.615Z,0.77
2022-09-17T05:31:26.174Z,0.75
2022-09-17T05:33:52.659Z,0.77
2022-09-17T05:36:19.100Z,0.95
2022-09-17T05:38:45.557Z,0.90
2022-09-17T05:41:11.998Z,0.70
2022-09-17T05:43:38.444Z,1.13
2022-09-17T05:46:05.724Z,0.88
2022-09-17T05:48:32.235Z,1.00
2022-09-17T05:50:58.710Z,0.75
2022-09-17T05:53:25.167Z,0.73
2022-09-17T05:55:51.630Z,0.60
2022-09-17T05:58:19.122Z,0.88
2022-09-17T06:00:46.558Z,0.90
2022-09-17T06:03:13.741Z,0.73
2022-09-17T06:05:40.607Z,0.70
2022-09-17T06:08:07.234Z,0.80
2022-09-17T06:10:37.296Z,0.80
2022-09-17T06:13:04.001Z,1.40
2022-09-17T06:15:30.599Z,1.00
2022-09-17T06:17:57.077Z,1.05
2022-09-17T06:20:23.527Z,1.08
2022-09-17T06:22:49.991Z,0.90
2022-09-17T06:25:16.520Z,1.10
2022-09-17T06:27:43.157Z,1.00
2022-09-17T06:30:09.756Z,1.20
2022-09-17T06:32:36.309Z,1.30
2022-09-17T06:35:03.199Z,1.90
2022-09-17T06:37:30.596Z,1.55
2022-09-17T06:39:57.179Z,1.75
2022-09-17T06:42:23.852Z,1.60
2022-09-17T06:44:50.325Z,1.65
2022-09-17T06:47:17.067Z,1.70
2022-09-17T06:49:43.554Z,2.13
2022-09-17T06:52:10.175Z,2.22
2022-09-17T06:54:36.662Z,1.90
2022-09-17T06:57:03.136Z,1.60
2022-09-17T06:59:29.600Z,2.30
2022-09-17T07:01:56.501Z,1.70
2022-09-17T07:04:23.014Z,2.05
2022-09-17T07:06:49.780Z,1.60
2022-09-17T07:09:16.495Z,1.85
2022-09-17T07:11:43.104Z,2.05
2022-09-17T07:14:09.547Z,1.80
2022-09-17T07:16:36.918Z,2.08
2022-09-17T07:19:03.655Z,1.85
2022-09-17T07:21:30.120Z,2.03
2022-09-17T07:23:56.572Z,1.90
2022-09-17T07:26:23.019Z,1.65
2022-09-17T07:28:49.508Z,1.63
2022-09-17T07:31:16.927Z,1.70
2022-09-17T07:33:43.656Z,1.95
2022-09-17T07:36:14.818Z,1.67
2022-09-17T07:38:41.285Z,1.52
2022-09-17T07:41:14.789Z,1.60
2022-09-17T07:43:41.407Z,1.40
2022-09-17T07:46:08.278Z,1.50
2022-09-17T07:48:34.981Z,1.70
2022-09-17T07:51:01.476Z,2.03
2022-09-17T07:53:28.072Z,1.90
2022-09-17T07:55:55.536Z,2.10
2022-09-17T07:58:29.516Z,1.60
2022-09-17T08:01:11.974Z,1.60
2022-09-17T08:03:39.502Z,1.65
2022-09-17T08:06:07.892Z,2.20
2022-09-17T08:08:35.787Z,1.67
2022-09-17T08:11:09.868Z,1.83
2022-09-17T08:16:04.561Z,2.08
2022-09-17T08:18:31.692Z,1.92
2022-09-17T08:21:01.972Z,1.98
2022-09-17T08:23:28.480Z,1.92
2022-09-17T08:25:59.247Z,2.00
2022-09-17T08:28:26.547Z,2.00
2022-09-17T08:30:53.395Z,1.92
2022-09-17T08:33:19.916Z,1.88
2022-09-17T08:35:59.372Z,2.08
2022-09-17T08:38:30.601Z,2.40
2022-09-17T08:41:14.617Z,2.17
2022-09-17T08:43:58.498Z,2.08
2022-09-17T08:46:25.261Z,1.85
2022-09-17T08:49:11.888Z,1.67
2022-09-17T08:52:03.317Z,1.65
2022-09-17T08:54:48.408Z,1.85
2022-09-17T08:57:39.547Z,1.50
2022-09-17T09:00:14.893Z,2.00
2022-09-17T09:02:56.280Z,1.60
2022-09-17T09:05:33.422Z,1.80
2022-09-17T09:08:11.039Z,1.63
2022-09-17T09:10:46.661Z,1.92
2022-09-17T09:13:14.700Z,1.98
2022-09-17T09:15:46.248Z,1.77
2022-09-17T09:18:18.097Z,1.77
2022-09-17T09:20:55.642Z,1.60
2022-09-17T09:23:52.480Z,1.90
2022-09-17T09:26:20.667Z,1.95
2022-09-17T09:28:49.806Z,2.10
2022-09-17T09:31:28.756Z,1.67
2022-09-17T09:33:55.226Z,1.73
2022-09-17T09:36:22.056Z,2.50
2022-09-17T09:39:07.334Z,1.70
2022-09-17T09:42:09.458Z,2.40
2022-09-17T09:44:35.903Z,2.13
2022-09-17T09:47:29.912Z,1.73
2022-09-17T09:50:08.825Z,1.85
2022-09-17T09:53:01.761Z,2.20
2022-09-17T09:56:03.331Z,1.88
2022-09-17T09:58:36.826Z,1.98
2022-09-17T10:01:08.311Z,2.08
2022-09-17T10:03:34.773Z,2.20
2022-09-17T10:06:02.979Z,1.95
2022-09-17T10:08:31.550Z,1.85
2022-09-17T10:11:04.592Z,1.40
2022-09-17T10:13:32.816Z,2.25
2022-09-17T10:16:18.421Z,1.80
2022-09-17T10:18:45.769Z,1.70
2022-09-17T10:21:31.703Z,2.20
2022-09-17T10:23:58.403Z,2.20
2022-09-17T10:26:26.507Z,2.17
2022-09-17T10:28:54.159Z,1.58
2022-09-17T10:31:20.670Z,1.83
2022-09-17T10:34:01.423Z,2.10
2022-09-17T10:36:44.332Z,1.60
2022-09-17T10:39:44.189Z,1.90
2022-09-17T10:42:15.079Z,1.80
2022-09-17T10:44:54.519Z,1.48
2022-09-17T10:47:31.536Z,2.28
2022-09-17T10:50:17.919Z,1.95
2022-09-17T10:52:55.771Z,1.48
2022-09-17T10:55:32.487Z,1.50
2022-09-17T10:58:08.067Z,1.42
2022-09-17T11:01:06.514Z,1.48
2022-09-17T11:03:41.918Z,1.48
2022-09-17T11:06:24.519Z,1.38
2022-09-17T11:09:12.662Z,1.60
2022-09-17T11:11:41.761Z,1.77
2022-09-17T11:14:17.593Z,1.30
2022-09-17T11:16:56.742Z,1.13
2022-09-17T11:19:45.432Z,1.33
2022-09-17T11:22:18.205Z,1.50
2022-09-17T11:24:49.901Z,1.42
2022-09-17T11:27:35.076Z,1.10
2022-09-17T11:30:19.167Z,1.00
2022-09-17T11:33:01.022Z,1.20
2022-09-17T11:35:29.824Z,1.00
2022-09-17T11:38:02.435Z,6.10
2022-09-17T11:41:08.276Z,3.00
2022-09-17T11:43:35.878Z,2.25
2022-09-17T11:46:10.823Z,1.70
2022-09-17T11:48:47.942Z,2.45
2022-09-17T11:51:30.693Z,2.70
2022-09-17T11:54:07.599Z,1.92
2022-09-17T11:56:44.931Z,2.30
2022-09-17T11:59:13.577Z,1.95
2022-09-17T12:01:58.029Z,2.20
2022-09-17T12:04:47.508Z,2.25
2022-09-17T12:07:31.684Z,2.10
2022-09-17T12:10:27.257Z,3.28
2022-09-17T12:13:07.379Z,5.07
2022-09-17T12:15:34.858Z,4.13
2022-09-17T12:18:35.863Z,4.30
2022-09-17T12:21:04.763Z,3.17
2022-09-17T12:23:41.398Z,3.60
2022-09-17T12:26:16.765Z,2.95
2022-09-17T12:28:50.940Z,3.20
2022-09-17T12:31:52.292Z,3.00
2022-09-17T12:34:44.244Z,3.05
2022-09-17T12:37:22.858Z,3.10
2022-09-17T12:40:16.777Z,3.03
2022-09-17T12:43:02.435Z,3.45
2022-09-17T12:45:32.479Z,2.70
2022-09-17T12:48:07.988Z,2.90
2022-09-17T12:50:49.573Z,3.53
2022-09-17T12:53:23.634Z,3.03
2022-09-17T12:58:40.646Z,2.92
2022-09-17T13:01:20.826Z,2.67
2022-09-17T13:04:00.508Z,2.63
2022-09-17T13:06:53.586Z,2.60
2022-09-17T13:09:38.961Z,3.22
2022-09-17T13:12:14.425Z,2.88
2022-09-17T13:14:51.531Z,2.83
2022-09-17T13:17:56.171Z,2.60
2022-09-17T13:20:34.945Z,2.78
2022-09-17T13:23:01.631Z,2.60
2022-09-17T13:25:28.108Z,2.78
2022-09-17T13:28:09.227Z,2.42
2022-09-17T13:31:08.721Z,2.85
2022-09-17T13:34:00.411Z,2.40
2022-09-17T13:36:32.891Z,2.42
2022-09-17T13:38:59.850Z,2.00
2022-09-17T13:41:26.446Z,2.28
2022-09-17T13:43:54.323Z,2.20
2022-09-17T13:46:28.097Z,2.15
2022-09-17T13:48:59.571Z,2.25
2022-09-17T13:51:32.094Z,2.08
2022-09-17T13:54:00.331Z,2.15
2022-09-17T13:56:37.844Z,1.92
2022-09-17T13:59:08.172Z,2.33
2022-09-17T14:01:56.248Z,2.08
2022-09-17T14:04:40.723Z,2.20
2022-09-17T14:07:23.487Z,1.80
2022-09-17T14:10:19.340Z,2.42
2022-09-17T14:12:52.165Z,1.92
2022-09-17T14:15:34.855Z,2.22
2022-09-17T14:18:04.216Z,1.95
2022-09-17T14:20:33.242Z,1.80
2022-09-17T14:23:00.844Z,2.22
2022-09-17T14:25:39.903Z,1.80
2022-09-17T14:28:16.333Z,1.63
2022-09-17T14:30:44.068Z,1.95
2022-09-17T14:33:18.701Z,1.90
2022-09-17T14:35:45.709Z,1.90
2022-09-17T14:38:32.542Z,1.95
2022-09-17T14:41:00.519Z,1.77
2022-09-17T14:43:52.294Z,1.92
2022-09-17T14:46:27.333Z,1.60
2022-09-17T14:48:53.843Z,1.98
2022-09-17T14:51:20.170Z,1.77
2022-09-17T14:53:47.827Z,1.70
2022-09-17T14:56:16.238Z,1.55
2022-09-17T14:58:46.015Z,1.65
2022-09-17T15:01:30.919Z,1.40
2022-09-17T15:04:12.644Z,1.95
2022-09-17T15:06:42.398Z,1.75
2022-09-17T15:09:19.383Z,1.48
2022-09-17T15:11:47.905Z,1.38
2022-09-17T15:14:28.113Z,1.35
2022-09-17T15:16:56.289Z,1.40
2022-09-17T15:19:26.200Z,1.50
2022-09-17T15:21:55.367Z,1.40
2022-09-17T15:25:06.655Z,1.70
2022-09-17T15:27:43.543Z,1.25
2022-09-17T15:30:14.192Z,1.33
2022-09-17T15:33:15.211Z,1.40
2022-09-17T15:35:41.662Z,1.70
2022-09-17T15:38:34.701Z,1.20
2022-09-17T15:41:33.870Z,1.33
2022-09-17T15:44:31.259Z,1.35
2022-09-17T15:47:39.297Z,1.30
2022-09-17T15:50:19.984Z,1.30
2022-09-17T15:52:46.791Z,1.15
2022-09-17T15:55:29.426Z,1.30
2022-09-17T15:57:57.743Z,1.60
2022-09-17T16:00:24.791Z,1.50
2022-09-17T16:02:51.430Z,9.10
2022-09-17T16:05:17.805Z,32.78
2022-09-17T16:07:47.184Z,54.50
2022-09-17T16:10:14.231Z,54.58
2022-09-17T16:12:40.727Z,59.35
2022-09-17T16:15:07.686Z,57.55
2022-09-17T16:17:47.602Z,55.67
2022-09-17T16:20:16.979Z,55.45
2022-09-17T16:22:43.893Z,26.55
2022-09-17T16:25:11.178Z,38.45
2022-09-17T16:27:44.215Z,43.22
2022-09-17T16:30:14.304Z,46.45
2022-09-17T16:32:40.769Z,47.35
2022-09-17T16:35:07.465Z,45.50
2022-09-17T16:37:33.911Z,45.75
2022-09-17T16:40:00.995Z,43.42
2022-09-17T16:42:31.076Z,41.42
2022-09-17T16:44:58.759Z,41.10
2022-09-17T16:47:25.293Z,41.38
2022-09-17T16:49:51.828Z,41.45
2022-09-17T16:52:18.691Z,40.20
2022-09-17T16:54:45.139Z,38.55
2022-09-17T16:57:11.590Z,37.85
2022-09-17T16:59:38.049Z,35.75
2022-09-17T17:02:04.535Z,37.03
2022-09-17T17:04:31.007Z,36.13
2022-09-17T17:06:57.450Z,36.63
2022-09-17T17:09:23.985Z,35.00
2022-09-17T17:11:51.737Z,33.88
2022-09-17T17:14:18.968Z,34.42
2022-09-17T17:16:45.420Z,34.45
2022-09-17T17:19:11.974Z,31.60
2022-09-17T17:21:38.722Z,30.75
2022-09-17T17:24:06.703Z,30.70
2022-09-17T17:26:33.852Z,30.58
2022-09-17T17:29:02.879Z,29.08
2022-09-17T17:31:39.016Z,27.80
2022-09-17T17:34:05.495Z,27.83
2022-09-17T17:36:32.059Z,28.42
2022-09-17T17:38:58.925Z,27.75
2022-09-17T17:41:27.168Z,27.38
2022-09-17T17:43:54.079Z,27.08
2022-09-17T17:46:20.852Z,26.83
2022-09-17T17:48:47.366Z,25.48
2022-09-17T17:51:13.836Z,26.17
2022-09-17T17:53:43.166Z,25.50
2022-09-17T17:56:09.716Z,24.50
2022-09-17T17:58:36.276Z,24.13
2022-09-17T18:01:16.632Z,23.33
2022-09-17T18:03:43.400Z,21.63
2022-09-17T18:06:09.904Z,21.58
2022-09-17T18:08:37.927Z,21.23
2022-09-17T18:11:04.708Z,21.23
2022-09-17T18:13:31.198Z,21.63
2022-09-17T18:15:58.708Z,21.65
2022-09-17T18:18:31.348Z,19.83
2022-09-17T18:21:00.553Z,19.67
2022-09-17T18:23:27.301Z,18.67
2022-09-17T18:25:57.630Z,17.95
2022-09-17T18:28:24.141Z,18.58
2022-09-17T18:30:50.673Z,17.20
2022-09-17T18:33:21.734Z,16.83
2022-09-17T18:35:48.233Z,16.67
2022-09-17T18:38:15.527Z,16.90
2022-09-17T18:40:42.332Z,16.23
2022-09-17T18:43:08.867Z,16.50
2022-09-17T18:45:35.569Z,16.95
2022-09-17T18:48:04.348Z,14.20
2022-09-17T18:50:30.803Z,14.52
2022-09-17T18:52:57.277Z,15.30
2022-09-17T18:55:23.758Z,14.65
2022-09-17T18:57:53.744Z,14.60
2022-09-17T19:00:20.536Z,14.25
2022-09-17T19:02:50.011Z,13.57
2022-09-17T19:05:16.913Z,13.32
2022-09-17T19:07:46.743Z,13.18
2022-09-17T19:10:14.138Z,13.02
2022-09-17T19:12:40.950Z,12.05
2022-09-17T19:15:08.884Z,12.82
2022-09-17T19:17:35.621Z,11.85
2022-09-17T19:20:03.049Z,12.13
2022-09-17T19:22:29.762Z,11.25
2022-09-17T19:24:56.244Z,10.80
2022-09-17T19:27:22.692Z,7.22
2022-09-17T19:29:49.165Z,3.08
2022-09-17T19:32:15.939Z,2.08
2022-09-17T19:34:42.603Z,2.95
2022-09-17T19:37:09.084Z,2.53
2022-09-17T19:39:35.583Z,2.50
2022-09-17T19:42:02.040Z,2.40
2022-09-17T19:44:29.038Z,3.60
2022-09-17T19:46:55.902Z,3.13
2022-09-17T19:49:22.475Z,3.40
2022-09-17T19:51:49.225Z,3.53
2022-09-17T19:54:15.732Z,3.53
2022-09-17T19:56:42.175Z,3.50
2022-09-17T19:59:08.626Z,3.05
2022-09-17T20:01:35.158Z,4.07
2022-09-17T20:04:01.852Z,3.30
2022-09-17T20:06:28.395Z,3.00
2022-09-17T20:08:55.178Z,2.95
2022-09-17T20:11:23.532Z,3.40
2022-09-17T20:13:50.151Z,3.40
2022-09-17T20:16:20.433Z,3.20
2022-09-17T20:18:47.839Z,3.40
2022-09-17T20:21:16.342Z,3.83
2022-09-17T20:23:43.035Z,3.72
2022-09-17T20:26:09.501Z,3.03
2022-09-17T20:28:35.985Z,3.70
2022-09-17T20:31:03.754Z,2.97
2022-09-17T20:33:30.320Z,3.03
2022-09-17T20:36:18.435Z,3.55
2022-09-17T20:39:10.719Z,3.10
2022-09-17T20:41:31.815Z,3.42
2022-09-17T20:43:58.385Z,3.20
2022-09-17T20:46:28.967Z,3.25
2022-09-17T20:48:57.382Z,2.85
2022-09-17T20:51:24.856Z,3.28
2022-09-17T20:53:51.395Z,2.80
2022-09-17T20:56:20.251Z,2.78
2022-09-17T20:58:51.759Z,2.97
2022-09-17T21:01:20.617Z,3.08
2022-09-17T21:03:50.059Z,2.95
2022-09-17T21:06:17.720Z,3.15
2022-09-17T21:08:44.656Z,2.88
2022-09-17T21:11:11.219Z,2.95
2022-09-17T21:13:37.684Z,3.10
2022-09-17T21:16:04.239Z,3.80
2022-09-17T21:18:30.770Z,5.53
2022-09-17T21:20:57.233Z,6.70
2022-09-17T21:23:24.734Z,7.38
2022-09-17T21:25:51.283Z,8.50
2022-09-17T21:28:20.402Z,9.68
2022-09-17T21:30:47.888Z,9.73
2022-09-17T21:33:21.895Z,10.27
2022-09-17T21:38:20.166Z,9.93
2022-09-17T21:40:56.999Z,10.05
2022-09-17T21:43:23.801Z,10.45
2022-09-17T21:46:12.619Z,10.32
2022-09-17T21:48:49.511Z,9.82
2022-09-17T21:51:18.090Z,10.13
2022-09-17T21:53:44.793Z,10.18
2022-09-17T21:56:15.227Z,9.10
2022-09-17T21:58:42.459Z,9.70
2022-09-17T22:01:29.032Z,8.73
2022-09-17T22:03:57.481Z,8.43
2022-09-17T22:06:25.723Z,8.88
2022-09-17T22:08:52.170Z,8.68
2022-09-17T22:11:23.195Z,9.02
2022-09-17T22:13:57.723Z,7.85
2022-09-17T22:16:24.985Z,8.43
2022-09-17T22:18:51.646Z,8.27
2022-09-17T22:21:21.013Z,8.73
2022-09-17T22:23:49.041Z,7.45
2022-09-17T22:26:15.619Z,7.95
2022-09-17T22:28:42.063Z,7.57
2022-09-17T22:31:10.347Z,7.05
2022-09-17T22:33:38.372Z,7.03
2022-09-17T22:36:06.143Z,7.18
2022-09-17T22:38:32.967Z,6.75
2022-09-17T22:41:18.762Z,6.60
2022-09-17T22:43:45.295Z,6.80
2022-09-17T22:46:17.252Z,6.70
2022-09-17T22:48:43.837Z,6.25
2022-09-17T22:51:10.345Z,6.05
2022-09-17T22:53:37.086Z,6.22
2022-09-17T22:56:04.519Z,6.13
2022-09-17T22:58:31.016Z,6.20
2022-09-17T23:00:57.554Z,5.93
2022-09-17T23:03:27.078Z,5.65
2022-09-17T23:05:58.950Z,6.18
2022-09-17T23:08:25.402Z,6.25
2022-09-17T23:10:51.851Z,5.75
2022-09-17T23:13:18.304Z,5.30
2022-09-17T23:15:44.787Z,5.78
2022-09-17T23:18:11.254Z,5.57
2022-09-17T23:20:37.722Z,4.65
2022-09-17T23:23:04.248Z,5.15
2022-09-17T23:25:30.689Z,5.53
2022-09-17T23:27:57.191Z,5.03
2022-09-17T23:30:24.262Z,5.25
2022-09-17T23:32:57.387Z,5.70
2022-09-17T23:35:23.866Z,4.45
2022-09-17T23:37:50.389Z,5.57
2022-09-17T23:40:18.124Z,4.70
2022-09-17T23:42:44.632Z,5.35
2022-09-17T23:45:11.083Z,4.97
2022-09-17T23:47:37.513Z,4.32
2022-09-17T23:50:04.195Z,4.43
2022-09-17T23:52:30.861Z,4.47
2022-09-17T23:54:58.554Z,4.60
2022-09-17T23:57:25.625Z,4.65
2022-09-17T23:59:52.125Z,4.38
